Ephrata, PA (17522)

7:10 AM EDT on May 28, 2017 (GMT -0400)
| | Change Station
Active Advisory: Dense Fog Advisory

Elev -9999 ft 0.00 °N, 0.00 °E | Updated 2 minutes ago

Fog
Fog
°F
Feels Like °F
N
Wind Variable Wind from North
Gusts mph

Today
High -- | Low -- °F
--% Chance of Precip.
Yesterday
High -- | Low -- °F
Precip. -- in
Pressure 29.91 in
Visibility 0.2 miles
Clouds
Dew Point Not available.
Humidity Not available.
Rainfall --
Snow Depth Not available.
5:39 AM 8:25 PM
Waxing Crescent, 10% visible
METAR KLNS 281053Z 00000KT M1/4SM FG VV002 15/15 A2991 RMK AO2 SLP127 T01500150
Pressure 29.91 in
Visibility 0.2 miles
Clouds
Dew Point Not available.
Humidity Not available.
Rainfall --
Snow Depth Not available.
5:39 AM 8:25 PM
Waxing Crescent, 10% visible
METAR KLNS 281053Z 00000KT M1/4SM FG VV002 15/15 A2991 RMK AO2 SLP127 T01500150

Get Your Daily Forecast Email!

Thanks for signing up!

Be on the lookout for a verification email in your inbox.

You'll start receiving severe weather alerts in your inbox..

×

10-Day Weather Forecast

Almanac

Astronomy

May. 28, 2017 Rise Set
Actual Time
Civil Twilight
Nautical Twilight
Astronomical Twilight
Moon
Length of Visible Light
Length of Day
Tomorrow will be .
, % of the Moon is Illuminated

Today's Extremes

State Highs State Lows

Community

WunderPhotos

Category 6

Welcome to Category 6. This is the collective home for Weather Underground's featured writeups by Dr. Jeff Masters (right), Bob Henson (left), Chris Burt, and other regular contributors.

Nearby

Air Quality

  Air Quality AQ Index Pollutant
Not available.

Snow Depth

Station Depth Elevation

Earthquake Activity

City Distance Mag. Time & Date
Minimum magnitude displayed is 2.5.

Coastal Water Temperatures

Place Temperature

Stations

Nearby Weather Stations

Station Location Temp. Windchill Dew Point Humidity Wind Precip. Elev Updated Type
                   

Watches & Warnings

Dense Fog Advisory
Issued: 6:49 AM EDT May. 28, 2017 – National Weather Service

... Dense fog advisory in effect until 9 am EDT this morning...

The National Weather Service in State College has issued a dense
fog advisory, which is in effect until 9 am EDT this morning.

* Visibilities... near zero in spots.

* Timing... through mid-morning.

* Impacts... travel may be hazardous due to limited visibility.

Precautionary/preparedness actions...

Motorists are advised to slow down... use low beam headlights and
keep a safe following distance from the vehicle in front of you.
Consider allowing extra time to reach your destination. Go to
weather.Gov/fog for more information on fog safety.